sensor_id;sensor_type;location;lat;lon;timestamp;P1;durP1;ratioP1;P2;durP2;ratioP2
32491;SDS011;20605;49.742;18.802;2022-09-13T00:00:58;6.37;;;3.95;;
32491;SDS011;20605;49.742;18.802;2022-09-13T00:03:26;4.40;;;4.00;;
32491;SDS011;20605;49.742;18.802;2022-09-13T00:05:53;4.95;;;3.85;;
32491;SDS011;20605;49.742;18.802;2022-09-13T00:08:19;4.35;;;3.95;;
32491;SDS011;20605;49.742;18.802;2022-09-13T00:10:46;4.87;;;3.60;;
32491;SDS011;20605;49.742;18.802;2022-09-13T00:13:13;3.98;;;3.62;;
32491;SDS011;20605;49.742;18.802;2022-09-13T00:15:42;4.78;;;3.77;;
32491;SDS011;20605;49.742;18.802;2022-09-13T00:18:10;5.28;;;4.28;;
32491;SDS011;20605;49.742;18.802;2022-09-13T00:20:37;4.53;;;3.77;;
32491;SDS011;20605;49.742;18.802;2022-09-13T00:23:04;5.55;;;3.83;;
32491;SDS011;20605;49.742;18.802;2022-09-13T00:25:31;9.30;;;3.60;;
32491;SDS011;20605;49.742;18.802;2022-09-13T00:27:58;3.75;;;3.42;;
32491;SDS011;20605;49.742;18.802;2022-09-13T00:30:24;4.83;;;3.90;;
32491;SDS011;20605;49.742;18.802;2022-09-13T00:32:51;5.17;;;3.60;;
32491;SDS011;20605;49.742;18.802;2022-09-13T00:35:18;4.20;;;3.80;;
32491;SDS011;20605;49.742;18.802;2022-09-13T00:37:44;6.45;;;3.75;;
32491;SDS011;20605;49.742;18.802;2022-09-13T00:40:11;5.78;;;3.72;;
32491;SDS011;20605;49.742;18.802;2022-09-13T00:42:38;4.17;;;3.75;;
32491;SDS011;20605;49.742;18.802;2022-09-13T00:53:01;5.25;;;3.70;;
32491;SDS011;20605;49.742;18.802;2022-09-13T00:58:17;5.10;;;3.50;;
32491;SDS011;20605;49.742;18.802;2022-09-13T01:00:56;4.20;;;3.47;;
32491;SDS011;20605;49.742;18.802;2022-09-13T01:03:25;4.33;;;3.15;;
32491;SDS011;20605;49.742;18.802;2022-09-13T01:06:09;4.42;;;3.55;;
32491;SDS011;20605;49.742;18.802;2022-09-13T01:08:38;5.15;;;3.52;;
32491;SDS011;20605;49.742;18.802;2022-09-13T01:11:09;6.20;;;3.47;;
32491;SDS011;20605;49.742;18.802;2022-09-13T01:13:40;3.62;;;3.15;;
32491;SDS011;20605;49.742;18.802;2022-09-13T01:16:07;4.95;;;3.37;;
32491;SDS011;20605;49.742;18.802;2022-09-13T01:18:34;5.10;;;3.40;;
32491;SDS011;20605;49.742;18.802;2022-09-13T01:24:04;4.80;;;3.50;;
32491;SDS011;20605;49.742;18.802;2022-09-13T01:44:46;3.85;;;2.77;;
32491;SDS011;20605;49.742;18.802;2022-09-13T01:47:33;3.95;;;3.30;;
32491;SDS011;20605;49.742;18.802;2022-09-13T01:50:28;6.37;;;4.10;;
32491;SDS011;20605;49.742;18.802;2022-09-13T01:53:09;4.60;;;3.45;;
32491;SDS011;20605;49.742;18.802;2022-09-13T01:55:58;4.28;;;3.00;;
32491;SDS011;20605;49.742;18.802;2022-09-13T01:58:42;4.03;;;3.40;;
32491;SDS011;20605;49.742;18.802;2022-09-13T02:01:35;4.83;;;3.00;;
32491;SDS011;20605;49.742;18.802;2022-09-13T02:04:11;6.22;;;3.20;;
32491;SDS011;20605;49.742;18.802;2022-09-13T02:06:45;3.65;;;3.22;;
32491;SDS011;20605;49.742;18.802;2022-09-13T02:09:18;5.15;;;3.42;;
32491;SDS011;20605;49.742;18.802;2022-09-13T02:11:52;4.12;;;3.10;;
32491;SDS011;20605;49.742;18.802;2022-09-13T02:14:30;5.50;;;3.20;;
32491;SDS011;20605;49.742;18.802;2022-09-13T02:17:03;4.50;;;3.47;;
32491;SDS011;20605;49.742;18.802;2022-09-13T02:22:18;4.35;;;3.37;;
32491;SDS011;20605;49.742;18.802;2022-09-13T02:24:50;4.28;;;3.50;;
32491;SDS011;20605;49.742;18.802;2022-09-13T02:27:24;3.52;;;3.10;;
32491;SDS011;20605;49.742;18.802;2022-09-13T02:29:57;5.35;;;3.50;;
32491;SDS011;20605;49.742;18.802;2022-09-13T02:32:42;9.25;;;3.55;;
32491;SDS011;20605;49.742;18.802;2022-09-13T02:35:18;4.40;;;3.50;;
32491;SDS011;20605;49.742;18.802;2022-09-13T02:37:54;4.97;;;3.60;;
32491;SDS011;20605;49.742;18.802;2022-09-13T02:40:31;4.47;;;3.20;;
32491;SDS011;20605;49.742;18.802;2022-09-13T02:43:07;3.22;;;2.92;;
32491;SDS011;20605;49.742;18.802;2022-09-13T02:45:41;4.15;;;3.37;;
32491;SDS011;20605;49.742;18.802;2022-09-13T02:48:14;5.45;;;3.52;;
32491;SDS011;20605;49.742;18.802;2022-09-13T02:50:58;3.65;;;3.25;;
32491;SDS011;20605;49.742;18.802;2022-09-13T02:53:37;5.00;;;3.17;;
32491;SDS011;20605;49.742;18.802;2022-09-13T02:59:10;5.33;;;3.00;;
32491;SDS011;20605;49.742;18.802;2022-09-13T03:01:42;5.45;;;3.58;;
32491;SDS011;20605;49.742;18.802;2022-09-13T03:04:15;4.42;;;3.27;;
32491;SDS011;20605;49.742;18.802;2022-09-13T03:06:42;3.40;;;3.05;;
32491;SDS011;20605;49.742;18.802;2022-09-13T03:09:09;6.15;;;3.77;;
32491;SDS011;20605;49.742;18.802;2022-09-13T03:11:51;7.45;;;3.67;;
32491;SDS011;20605;49.742;18.802;2022-09-13T03:14:32;4.12;;;3.72;;
32491;SDS011;20605;49.742;18.802;2022-09-13T03:20:06;7.53;;;3.65;;
32491;SDS011;20605;49.742;18.802;2022-09-13T03:31:44;5.75;;;3.67;;
32491;SDS011;20605;49.742;18.802;2022-09-13T03:37:32;4.08;;;3.65;;
32491;SDS011;20605;49.742;18.802;2022-09-13T03:40:17;6.72;;;4.15;;
32491;SDS011;20605;49.742;18.802;2022-09-13T03:43:11;4.03;;;3.20;;
32491;SDS011;20605;49.742;18.802;2022-09-13T03:45:51;4.28;;;3.58;;
32491;SDS011;20605;49.742;18.802;2022-09-13T03:48:21;5.17;;;3.72;;
32491;SDS011;20605;49.742;18.802;2022-09-13T03:50:49;5.30;;;4.35;;
32491;SDS011;20605;49.742;18.802;2022-09-13T03:53:20;3.95;;;3.52;;
32491;SDS011;20605;49.742;18.802;2022-09-13T03:55:50;4.10;;;3.65;;
32491;SDS011;20605;49.742;18.802;2022-09-13T03:58:17;5.20;;;3.98;;
32491;SDS011;20605;49.742;18.802;2022-09-13T04:00:45;7.72;;;4.22;;
32491;SDS011;20605;49.742;18.802;2022-09-13T04:03:12;4.83;;;4.15;;
32491;SDS011;20605;49.742;18.802;2022-09-13T04:05:39;5.53;;;4.03;;
32491;SDS011;20605;49.742;18.802;2022-09-13T04:08:06;6.45;;;4.00;;
32491;SDS011;20605;49.742;18.802;2022-09-13T04:10:33;6.30;;;3.87;;
32491;SDS011;20605;49.742;18.802;2022-09-13T04:13:02;10.32;;;4.20;;
32491;SDS011;20605;49.742;18.802;2022-09-13T04:15:29;5.00;;;4.45;;
32491;SDS011;20605;49.742;18.802;2022-09-13T04:17:56;4.92;;;4.08;;
32491;SDS011;20605;49.742;18.802;2022-09-13T04:20:23;5.67;;;4.10;;
32491;SDS011;20605;49.742;18.802;2022-09-13T04:22:53;4.85;;;3.62;;
32491;SDS011;20605;49.742;18.802;2022-09-13T04:25:21;5.95;;;5.05;;
32491;SDS011;20605;49.742;18.802;2022-09-13T04:27:55;7.10;;;5.53;;
32491;SDS011;20605;49.742;18.802;2022-09-13T04:30:26;6.78;;;4.87;;
32491;SDS011;20605;49.742;18.802;2022-09-13T04:32:53;5.97;;;4.45;;
32491;SDS011;20605;49.742;18.802;2022-09-13T04:35:24;5.37;;;4.15;;
32491;SDS011;20605;49.742;18.802;2022-09-13T04:37:53;5.75;;;3.87;;
32491;SDS011;20605;49.742;18.802;2022-09-13T04:40:21;4.22;;;3.83;;
32491;SDS011;20605;49.742;18.802;2022-09-13T04:42:50;8.45;;;4.62;;
32491;SDS011;20605;49.742;18.802;2022-09-13T04:45:18;7.72;;;4.90;;
32491;SDS011;20605;49.742;18.802;2022-09-13T04:47:49;6.22;;;4.65;;
32491;SDS011;20605;49.742;18.802;2022-09-13T04:50:23;4.90;;;4.15;;
32491;SDS011;20605;49.742;18.802;2022-09-13T04:52:48;5.00;;;4.08;;
32491;SDS011;20605;49.742;18.802;2022-09-13T04:55:16;8.23;;;4.78;;
32491;SDS011;20605;49.742;18.802;2022-09-13T04:57:43;6.22;;;4.47;;
32491;SDS011;20605;49.742;18.802;2022-09-13T05:00:09;8.65;;;4.47;;
32491;SDS011;20605;49.742;18.802;2022-09-13T05:02:37;5.80;;;4.40;;
32491;SDS011;20605;49.742;18.802;2022-09-13T05:05:04;8.60;;;4.20;;
32491;SDS011;20605;49.742;18.802;2022-09-13T05:07:31;6.03;;;4.20;;
32491;SDS011;20605;49.742;18.802;2022-09-13T05:09:58;5.78;;;3.83;;
32491;SDS011;20605;49.742;18.802;2022-09-13T05:12:24;6.55;;;3.95;;
32491;SDS011;20605;49.742;18.802;2022-09-13T05:14:51;6.92;;;4.40;;
32491;SDS011;20605;49.742;18.802;2022-09-13T05:17:18;4.92;;;4.10;;
32491;SDS011;20605;49.742;18.802;2022-09-13T05:19:46;5.97;;;4.45;;
32491;SDS011;20605;49.742;18.802;2022-09-13T05:22:13;6.92;;;4.55;;
32491;SDS011;20605;49.742;18.802;2022-09-13T05:24:40;5.55;;;4.53;;
32491;SDS011;20605;49.742;18.802;2022-09-13T05:27:07;4.53;;;4.00;;
32491;SDS011;20605;49.742;18.802;2022-09-13T05:29:35;6.22;;;4.42;;
32491;SDS011;20605;49.742;18.802;2022-09-13T05:32:02;4.95;;;3.70;;
32491;SDS011;20605;49.742;18.802;2022-09-13T05:34:29;4.50;;;3.77;;
32491;SDS011;20605;49.742;18.802;2022-09-13T05:36:56;3.72;;;3.35;;
32491;SDS011;20605;49.742;18.802;2022-09-13T05:39:22;5.92;;;3.90;;
32491;SDS011;20605;49.742;18.802;2022-09-13T05:41:49;5.05;;;4.40;;
32491;SDS011;20605;49.742;18.802;2022-09-13T05:44:16;6.00;;;3.80;;
32491;SDS011;20605;49.742;18.802;2022-09-13T05:46:45;5.35;;;4.85;;
32491;SDS011;20605;49.742;18.802;2022-09-13T05:49:12;4.65;;;3.77;;
32491;SDS011;20605;49.742;18.802;2022-09-13T05:51:39;3.90;;;3.60;;
32491;SDS011;20605;49.742;18.802;2022-09-13T05:54:06;3.87;;;3.58;;
32491;SDS011;20605;49.742;18.802;2022-09-13T05:56:37;4.70;;;3.30;;
32491;SDS011;20605;49.742;18.802;2022-09-13T05:59:04;3.62;;;3.33;;
32491;SDS011;20605;49.742;18.802;2022-09-13T06:01:30;3.67;;;3.37;;
32491;SDS011;20605;49.742;18.802;2022-09-13T06:03:57;3.92;;;3.35;;
32491;SDS011;20605;49.742;18.802;2022-09-13T06:06:25;4.05;;;3.75;;
32491;SDS011;20605;49.742;18.802;2022-09-13T06:08:52;3.83;;;3.52;;
32491;SDS011;20605;49.742;18.802;2022-09-13T06:11:20;4.40;;;3.40;;
32491;SDS011;20605;49.742;18.802;2022-09-13T06:13:49;3.37;;;3.08;;
32491;SDS011;20605;49.742;18.802;2022-09-13T06:16:16;5.35;;;3.42;;
32491;SDS011;20605;49.742;18.802;2022-09-13T06:18:43;4.45;;;3.47;;
32491;SDS011;20605;49.742;18.802;2022-09-13T06:21:11;3.50;;;3.20;;
32491;SDS011;20605;49.742;18.802;2022-09-13T06:23:46;4.20;;;3.37;;
32491;SDS011;20605;49.742;18.802;2022-09-13T06:26:17;4.85;;;3.02;;
32491;SDS011;20605;49.742;18.802;2022-09-13T06:28:50;5.15;;;3.40;;
32491;SDS011;20605;49.742;18.802;2022-09-13T06:31:19;4.10;;;3.80;;
32491;SDS011;20605;49.742;18.802;2022-09-13T06:33:53;3.10;;;2.85;;
32491;SDS011;20605;49.742;18.802;2022-09-13T06:36:23;4.08;;;3.50;;
32491;SDS011;20605;49.742;18.802;2022-09-13T06:38:50;3.12;;;2.83;;
32491;SDS011;20605;49.742;18.802;2022-09-13T06:41:18;5.37;;;3.37;;
32491;SDS011;20605;49.742;18.802;2022-09-13T06:43:54;4.10;;;3.30;;
32491;SDS011;20605;49.742;18.802;2022-09-13T06:46:23;3.55;;;2.98;;
32491;SDS011;20605;49.742;18.802;2022-09-13T06:48:52;3.10;;;2.80;;
32491;SDS011;20605;49.742;18.802;2022-09-13T06:51:23;3.25;;;2.95;;
32491;SDS011;20605;49.742;18.802;2022-09-13T06:53:50;4.25;;;2.90;;
32491;SDS011;20605;49.742;18.802;2022-09-13T06:56:18;2.98;;;2.75;;
32491;SDS011;20605;49.742;18.802;2022-09-13T06:59:01;2.98;;;2.67;;
32491;SDS011;20605;49.742;18.802;2022-09-13T07:01:34;5.50;;;2.85;;
32491;SDS011;20605;49.742;18.802;2022-09-13T07:04:07;3.65;;;2.55;;
32491;SDS011;20605;49.742;18.802;2022-09-13T07:06:46;4.53;;;2.62;;
32491;SDS011;20605;49.742;18.802;2022-09-13T07:09:13;3.22;;;2.92;;
32491;SDS011;20605;49.742;18.802;2022-09-13T07:11:43;2.98;;;2.67;;
32491;SDS011;20605;49.742;18.802;2022-09-13T07:14:15;4.00;;;2.72;;
32491;SDS011;20605;49.742;18.802;2022-09-13T07:16:50;3.20;;;2.42;;
32491;SDS011;20605;49.742;18.802;2022-09-13T07:19:19;3.35;;;2.47;;
32491;SDS011;20605;49.742;18.802;2022-09-13T07:21:53;3.40;;;2.55;;
32491;SDS011;20605;49.742;18.802;2022-09-13T07:24:22;3.15;;;2.50;;
32491;SDS011;20605;49.742;18.802;2022-09-13T07:26:49;3.42;;;2.70;;
32491;SDS011;20605;49.742;18.802;2022-09-13T07:29:18;3.80;;;2.92;;
32491;SDS011;20605;49.742;18.802;2022-09-13T07:31:52;2.80;;;2.60;;
32491;SDS011;20605;49.742;18.802;2022-09-13T07:34:20;2.20;;;2.00;;
32491;SDS011;20605;49.742;18.802;2022-09-13T07:36:50;2.70;;;2.50;;
32491;SDS011;20605;49.742;18.802;2022-09-13T07:39:17;2.75;;;1.87;;
32491;SDS011;20605;49.742;18.802;2022-09-13T07:41:44;2.87;;;2.37;;
32491;SDS011;20605;49.742;18.802;2022-09-13T07:44:11;2.47;;;2.37;;
32491;SDS011;20605;49.742;18.802;2022-09-13T18:18:57;3.72;;;3.42;;
32491;SDS011;20605;49.742;18.802;2022-09-13T18:22:08;4.47;;;4.08;;
32491;SDS011;20605;49.742;18.802;2022-09-13T18:28:08;4.85;;;3.72;;
32491;SDS011;20605;49.742;18.802;2022-09-13T18:54:37;6.25;;;5.20;;
32491;SDS011;20605;49.742;18.802;2022-09-13T18:57:04;4.97;;;4.25;;
32491;SDS011;20605;49.742;18.802;2022-09-13T19:06:12;4.23;;;3.83;;
32491;SDS011;20605;49.742;18.802;2022-09-13T19:17:39;4.13;;;3.60;;
32491;SDS011;20605;49.742;18.802;2022-09-13T19:20:06;4.37;;;3.77;;
32491;SDS011;20605;49.742;18.802;2022-09-13T19:22:33;4.05;;;3.75;;
32491;SDS011;20605;49.742;18.802;2022-09-13T19:25:00;6.15;;;5.15;;
32491;SDS011;20605;49.742;18.802;2022-09-13T19:27:27;4.47;;;3.98;;
32491;SDS011;20605;49.742;18.802;2022-09-13T19:29:54;4.37;;;3.92;;
32491;SDS011;20605;49.742;18.802;2022-09-13T19:32:22;5.97;;;4.12;;
32491;SDS011;20605;49.742;18.802;2022-09-13T19:34:49;5.03;;;4.53;;
32491;SDS011;20605;49.742;18.802;2022-09-13T19:37:15;5.85;;;3.80;;
32491;SDS011;20605;49.742;18.802;2022-09-13T19:39:42;5.35;;;4.15;;
32491;SDS011;20605;49.742;18.802;2022-09-13T19:42:10;3.98;;;3.55;;
32491;SDS011;20605;49.742;18.802;2022-09-13T19:44:36;5.85;;;4.08;;
32491;SDS011;20605;49.742;18.802;2022-09-13T19:47:03;4.58;;;3.50;;
32491;SDS011;20605;49.742;18.802;2022-09-13T19:49:31;4.17;;;3.77;;
32491;SDS011;20605;49.742;18.802;2022-09-13T19:51:58;4.47;;;4.05;;
32491;SDS011;20605;49.742;18.802;2022-09-13T19:54:25;8.25;;;6.87;;
32491;SDS011;20605;49.742;18.802;2022-09-13T19:56:52;13.68;;;12.37;;
32491;SDS011;20605;49.742;18.802;2022-09-13T19:59:18;8.30;;;7.50;;
32491;SDS011;20605;49.742;18.802;2022-09-13T20:01:45;6.53;;;5.92;;
32491;SDS011;20605;49.742;18.802;2022-09-13T20:04:15;4.65;;;4.15;;
32491;SDS011;20605;49.742;18.802;2022-09-13T20:06:46;4.30;;;3.90;;
32491;SDS011;20605;49.742;18.802;2022-09-13T20:09:16;6.08;;;3.92;;
32491;SDS011;20605;49.742;18.802;2022-09-13T20:11:44;5.67;;;3.95;;
32491;SDS011;20605;49.742;18.802;2022-09-13T20:14:14;4.83;;;4.20;;
32491;SDS011;20605;49.742;18.802;2022-09-13T20:16:43;5.10;;;3.90;;
32491;SDS011;20605;49.742;18.802;2022-09-13T20:19:13;5.92;;;3.95;;
32491;SDS011;20605;49.742;18.802;2022-09-13T20:21:44;4.53;;;4.12;;
32491;SDS011;20605;49.742;18.802;2022-09-13T20:24:13;4.20;;;3.80;;
32491;SDS011;20605;49.742;18.802;2022-09-13T20:26:41;5.78;;;3.67;;
32491;SDS011;20605;49.742;18.802;2022-09-13T20:29:08;6.90;;;5.53;;
32491;SDS011;20605;49.742;18.802;2022-09-13T20:31:36;6.70;;;6.00;;
32491;SDS011;20605;49.742;18.802;2022-09-13T20:34:04;7.70;;;4.80;;
32491;SDS011;20605;49.742;18.802;2022-09-13T20:36:33;5.33;;;4.70;;
32491;SDS011;20605;49.742;18.802;2022-09-13T20:39:02;3.92;;;3.62;;
32491;SDS011;20605;49.742;18.802;2022-09-13T20:41:30;7.12;;;4.22;;
32491;SDS011;20605;49.742;18.802;2022-09-13T20:43:57;4.33;;;3.98;;
32491;SDS011;20605;49.742;18.802;2022-09-13T20:46:25;4.35;;;4.03;;
32491;SDS011;20605;49.742;18.802;2022-09-13T20:48:53;6.08;;;4.33;;
32491;SDS011;20605;49.742;18.802;2022-09-13T20:51:20;4.62;;;4.22;;
32491;SDS011;20605;49.742;18.802;2022-09-13T20:53:53;5.35;;;4.45;;
32491;SDS011;20605;49.742;18.802;2022-09-13T20:56:20;4.70;;;4.30;;
32491;SDS011;20605;49.742;18.802;2022-09-13T20:58:50;4.70;;;4.30;;
32491;SDS011;20605;49.742;18.802;2022-09-13T21:01:19;3.92;;;3.62;;
32491;SDS011;20605;49.742;18.802;2022-09-13T21:03:48;4.83;;;4.30;;
32491;SDS011;20605;49.742;18.802;2022-09-13T21:06:17;4.35;;;4.00;;
32491;SDS011;20605;49.742;18.802;2022-09-13T21:08:46;4.15;;;3.80;;
32491;SDS011;20605;49.742;18.802;2022-09-13T21:11:19;4.00;;;3.60;;
32491;SDS011;20605;49.742;18.802;2022-09-13T21:13:49;4.65;;;4.25;;
32491;SDS011;20605;49.742;18.802;2022-09-13T21:16:19;5.28;;;3.35;;
32491;SDS011;20605;49.742;18.802;2022-09-13T21:18:50;4.37;;;3.90;;
32491;SDS011;20605;49.742;18.802;2022-09-13T21:21:20;4.30;;;3.35;;
32491;SDS011;20605;49.742;18.802;2022-09-13T21:23:54;4.65;;;4.20;;
32491;SDS011;20605;49.742;18.802;2022-09-13T21:26:22;4.17;;;3.77;;
32491;SDS011;20605;49.742;18.802;2022-09-13T21:28:51;3.98;;;3.67;;
32491;SDS011;20605;49.742;18.802;2022-09-13T21:31:19;4.08;;;3.77;;
32491;SDS011;20605;49.742;18.802;2022-09-13T21:33:53;3.90;;;3.50;;
32491;SDS011;20605;49.742;18.802;2022-09-13T21:36:21;4.67;;;3.65;;
32491;SDS011;20605;49.742;18.802;2022-09-13T21:38:48;4.33;;;3.90;;
32491;SDS011;20605;49.742;18.802;2022-09-13T21:41:15;4.62;;;3.98;;
32491;SDS011;20605;49.742;18.802;2022-09-13T21:43:43;3.60;;;3.30;;
32491;SDS011;20605;49.742;18.802;2022-09-13T21:46:11;6.22;;;3.87;;
32491;SDS011;20605;49.742;18.802;2022-09-13T21:48:41;3.95;;;3.52;;
32491;SDS011;20605;49.742;18.802;2022-09-13T21:51:19;4.20;;;3.67;;
32491;SDS011;20605;49.742;18.802;2022-09-13T21:53:50;3.80;;;3.50;;
32491;SDS011;20605;49.742;18.802;2022-09-13T21:56:21;6.58;;;3.45;;
32491;SDS011;20605;49.742;18.802;2022-09-13T21:58:50;3.87;;;3.58;;
32491;SDS011;20605;49.742;18.802;2022-09-13T22:01:20;4.53;;;3.70;;
32491;SDS011;20605;49.742;18.802;2022-09-13T22:03:48;3.75;;;3.33;;
32491;SDS011;20605;49.742;18.802;2022-09-13T22:06:17;4.60;;;3.62;;
32491;SDS011;20605;49.742;18.802;2022-09-13T22:08:46;4.58;;;4.12;;
32491;SDS011;20605;49.742;18.802;2022-09-13T22:11:17;4.20;;;3.87;;
32491;SDS011;20605;49.742;18.802;2022-09-13T22:13:49;3.72;;;3.42;;
32491;SDS011;20605;49.742;18.802;2022-09-13T22:16:19;4.03;;;3.62;;
32491;SDS011;20605;49.742;18.802;2022-09-13T22:18:57;4.00;;;3.70;;
32491;SDS011;20605;49.742;18.802;2022-09-13T22:21:25;3.90;;;3.60;;
32491;SDS011;20605;49.742;18.802;2022-09-13T22:23:53;4.37;;;3.37;;
32491;SDS011;20605;49.742;18.802;2022-09-13T22:26:26;3.77;;;3.47;;
32491;SDS011;20605;49.742;18.802;2022-09-13T22:28:52;4.17;;;3.83;;
32491;SDS011;20605;49.742;18.802;2022-09-13T22:31:25;5.42;;;3.52;;
32491;SDS011;20605;49.742;18.802;2022-09-13T22:33:51;3.55;;;3.25;;
32491;SDS011;20605;49.742;18.802;2022-09-13T22:36:19;4.35;;;3.92;;
32491;SDS011;20605;49.742;18.802;2022-09-13T22:38:46;4.42;;;3.83;;
32491;SDS011;20605;49.742;18.802;2022-09-13T22:41:15;3.42;;;3.12;;
32491;SDS011;20605;49.742;18.802;2022-09-13T22:43:45;4.60;;;3.30;;
32491;SDS011;20605;49.742;18.802;2022-09-13T22:48:46;3.70;;;3.30;;
32491;SDS011;20605;49.742;18.802;2022-09-13T22:51:14;4.03;;;3.72;;
32491;SDS011;20605;49.742;18.802;2022-09-13T22:53:42;4.12;;;3.72;;
32491;SDS011;20605;49.742;18.802;2022-09-13T22:56:16;6.42;;;4.10;;
32491;SDS011;20605;49.742;18.802;2022-09-13T22:58:56;5.67;;;4.08;;
32491;SDS011;20605;49.742;18.802;2022-09-13T23:01:32;4.45;;;4.00;;
32491;SDS011;20605;49.742;18.802;2022-09-13T23:03:59;4.45;;;4.05;;
32491;SDS011;20605;49.742;18.802;2022-09-13T23:06:26;6.90;;;4.10;;
32491;SDS011;20605;49.742;18.802;2022-09-13T23:08:56;5.28;;;3.80;;
32491;SDS011;20605;49.742;18.802;2022-09-13T23:11:26;4.40;;;4.03;;
32491;SDS011;20605;49.742;18.802;2022-09-13T23:13:57;4.47;;;4.08;;
32491;SDS011;20605;49.742;18.802;2022-09-13T23:16:28;4.78;;;3.60;;
32491;SDS011;20605;49.742;18.802;2022-09-13T23:19:01;4.28;;;3.87;;
32491;SDS011;20605;49.742;18.802;2022-09-13T23:21:29;4.20;;;3.60;;
32491;SDS011;20605;49.742;18.802;2022-09-13T23:23:59;5.85;;;3.40;;
32491;SDS011;20605;49.742;18.802;2022-09-13T23:26:26;4.42;;;4.03;;
32491;SDS011;20605;49.742;18.802;2022-09-13T23:28:54;4.10;;;3.72;;
32491;SDS011;20605;49.742;18.802;2022-09-13T23:31:24;4.28;;;3.50;;
32491;SDS011;20605;49.742;18.802;2022-09-13T23:33:58;4.47;;;3.90;;
32491;SDS011;20605;49.742;18.802;2022-09-13T23:36:29;4.42;;;3.45;;
32491;SDS011;20605;49.742;18.802;2022-09-13T23:39:00;3.98;;;3.58;;
32491;SDS011;20605;49.742;18.802;2022-09-13T23:41:29;6.08;;;3.67;;
32491;SDS011;20605;49.742;18.802;2022-09-13T23:43:57;5.08;;;3.87;;
32491;SDS011;20605;49.742;18.802;2022-09-13T23:46:24;3.70;;;3.40;;
32491;SDS011;20605;49.742;18.802;2022-09-13T23:48:51;4.20;;;3.80;;
32491;SDS011;20605;49.742;18.802;2022-09-13T23:51:19;4.20;;;3.80;;
32491;SDS011;20605;49.742;18.802;2022-09-13T23:53:48;6.65;;;3.72;;
32491;SDS011;20605;49.742;18.802;2022-09-13T23:56:16;3.98;;;3.50;;
32491;SDS011;20605;49.742;18.802;2022-09-13T23:58:44;4.67;;;4.00;;
